SEAM/ATF METAR and TAF weather

Enter ICAO airport designator
Station Type Date Time Source
SEAM METAR 2019/08/21 21:18 UTC NOAA

SEAM 212118Z 21008KT 6000 1000S -RA SCT012 BKN016 OVC100 15/11 Q1028


Station Type Date Time Source
SEAM Decoded METAR 2019/08/21 21:18 UTC NOAA

Station name not available
Aug 21, 2019 - 05:18 PM EDT / 2019.08.21 2118 UTC
Wind: from the SSW (210 degrees) at 9 MPH (8 KT):0
Visibility: 3 mile(s):0
Sky conditions: overcast
Weather: light rain
Temperature: 59 F (15 C)
Dew Point: 51 F (11 C)
Relative Humidity: 76%
Pressure (altimeter): 30.36 in. Hg (1028 hPa)
ob: SEAM 212118Z 21008KT 6000 1000S -RA SCT012 BKN016 OVC100 15/11 Q1028
cycle: 21

Station Type Date Time Source
SEAM TAF UTC NOAA

Error!

Example: see airport list